Point Comfort, Texas
Current Conditions -  °F | °C
As of 3:15 PM on Tuesday 21 Oct 2014 (Local Time) from KPKV Reporting Station
Scattered Clouds Scattered Clouds  
Wind Chill: 82°   Ceiling: Unl
Heat Index: 85°   Visibility: 10mi
Dew Point: 67°   Wind: 8mph
Humidity: 59%   Direction: 130°SE
Pressure: 29.97"   Gusts: NA
Location:  28.68°N, 96.56°W
Report Text: KPKV 212015Z AUTO 13007KT 070V140 10SM SCT035 28/19 A2997 RMK AO2 T02790193
Loading
Personal Weather Stations






























Interactive Weather Map
Tropical Storm Tracking
New forecast layout! Learn more

10-Day Weather Forecast

Advertisements
Track Severe Weather on mobile